Zephyrhills, FL

7:21 AM EDT on July 25, 2016 (GMT -0400)
Zephyrhills Fire Station 16 | | Change Station

Elev 115 ft 28.23 °N, 82.23 °W | Updated 14 minutes ago

Clear
Clear
70.9 °F
Feels Like 70.9 °F
N
0.0
Wind Variable Wind from East
Gusts 0.0 mph

Today
High -- | Low -- °F
--% Chance of Precip.
Yesterday
High -- | Low -- °F
Precip. -- in
Pressure 30.06 in
Visibility 10.0 miles
Clouds Clear
Dew Point 71 °F
Humidity 99%
Rainfall 0.01 in
Snow Depth Not available.
6:47 AM 8:23 PM
Waning Gibbous, 67% visible
METAR KZPH 251135Z AUTO 00000KT 10SM CLR 09/09 A3006 RMK AO2 T00930093
Pressure 30.06 in
Visibility 10.0 miles
Clouds Clear
Dew Point 71 °F
Humidity 99%
Rainfall 0.01 in
Snow Depth Not available.
6:47 AM 8:23 PM
Waning Gibbous, 67% visible
METAR KZPH 251135Z AUTO 00000KT 10SM CLR 09/09 A3006 RMK AO2 T00930093

10-Day Weather Forecast

Almanac

Astronomy

Jul. 25, 2016 Rise Set
Actual Time
Civil Twilight
Nautical Twilight
Astronomical Twilight
Moon
Length of Visible Light
Length of Day
Tomorrow will be .
, % of the Moon is Illuminated

Today's Extremes

State Highs State Lows

Community

WunderPhotos

Upload Photos

1,927,291 photos uploaded!

WunderBlog® & News

Nearby

Air Quality

  Air Quality AQ Index Pollutant
Not available.

Snow Depth

Station Depth Elevation

Earthquake Activity

City Distance Mag. Time & Date
Minimum magnitude displayed is 2.5.

Coastal Water Temperatures

Place Temperature

Stations

Nearby Weather Stations

Station Location Temp. Windchill Dew Point Humidity Wind Precip. Elev Updated Type
                   

Watches & Warnings

There are currently no watches in effect.